Terminal Aerodrome Forecast
Issued by NWS Cleveland, OH

Home | Current Version | Previous Version | Graphics & Text | Print | Product List | Glossary Off
Versions: 1 2 3 4 5 6 7 8 9 10 11 12 13 14 15 16 17 18 19

000
FTUS41 KCLE 301400 AAA
TAFYNG
TAF AMD
KYNG 301420Z 3014/3112 31012G20KT 5SM -SHSN BLSN SCT008 OVC015
      TEMPO 3014/3016 3/4SM -SHSN BLSN
     FM301800 32012G20KT P6SM SCT015 BKN025
     FM310400 26004KT P6SM SCT150 BKN200=

USA.gov is the U.S. government's official web portal to all federal, state and local government web resources and services.